Time;durP1;ratioP1;P1;durP2;ratioP2;P2;SDS_P1;SDS_P2;PMS_P1;PMS_P2;Temp;Humidity;BMP_temperature;BMP_pressure;BME280_temperature;BME280_humidity;BME280_pressure;Samples;Min_cycle;Max_cycle;Signal;HPM_P1;HPM_P2
2021/01/15 00:01:45;;;;;;;11.18;5.32;;;-1.70;99.90;;;;;;5071546;28;20043;-74
2021/01/15 00:04:11;;;;;;;7.97;4.53;;;-1.70;99.90;;;;;;5071719;28;20124;-74
2021/01/15 00:06:36;;;;;;;9.43;4.93;;;-1.70;99.90;;;;;;5070874;28;20094;-75
2021/01/15 00:09:03;;;;;;;8.07;4.90;;;-1.70;99.90;;;;;;5071226;28;20073;-75
2021/01/15 00:11:31;;;;;;;12.00;5.60;;;-1.80;99.90;;;;;;5071098;28;20072;-74
2021/01/15 00:14:02;;;;;;;10.63;5.22;;;-1.70;99.90;;;;;;5070952;28;20115;-76
2021/01/15 00:16:31;;;;;;;8.10;4.68;;;-1.70;99.90;;;;;;5054477;28;20058;-76
2021/01/15 00:18:59;;;;;;;17.58;6.78;;;-1.70;99.90;;;;;;5072275;28;20504;-73
2021/01/15 00:21:28;;;;;;;14.38;5.97;;;-1.70;99.90;;;;;;5071066;28;20067;-75
2021/01/15 00:23:56;;;;;;;8.57;4.28;;;-1.80;99.90;;;;;;5085962;28;20152;-75
2021/01/15 00:26:24;;;;;;;7.28;4.25;;;-1.90;99.90;;;;;;5074481;28;20028;-75
2021/01/15 00:28:51;;;;;;;9.02;4.70;;;-1.90;99.90;;;;;;5090992;28;20592;-74
2021/01/15 00:31:18;;;;;;;7.40;4.05;;;-2.00;99.90;;;;;;5092394;28;20036;-74
2021/01/15 00:33:44;;;;;;;7.95;4.13;;;-2.10;99.90;;;;;;5090891;28;20028;-74
2021/01/15 00:36:10;;;;;;;7.65;3.92;;;-2.10;99.90;;;;;;5091878;28;20027;-75
2021/01/15 00:38:37;;;;;;;11.45;3.80;;;-2.20;99.90;;;;;;5091185;28;20028;-74
2021/01/15 00:41:07;;;;;;;7.47;3.58;;;-2.20;99.90;;;;;;5085755;28;20033;-74
2021/01/15 00:43:34;;;;;;;7.32;3.60;;;-2.30;99.90;;;;;;5068997;28;20544;-75
2021/01/15 00:46:00;;;;;;;7.72;3.88;;;-2.30;99.90;;;;;;5070714;28;20123;-75
2021/01/15 00:48:26;;;;;;;8.48;4.07;;;-2.40;99.90;;;;;;5071529;28;20028;-75
2021/01/15 00:50:52;;;;;;;12.98;4.57;;;-2.40;99.90;;;;;;5066640;28;20031;-75
2021/01/15 00:53:18;;;;;;;10.02;4.65;;;-2.30;99.90;;;;;;5069608;28;20169;-74
2021/01/15 00:55:44;;;;;;;7.50;4.07;;;-2.30;99.90;;;;;;5070190;28;20496;-77
2021/01/15 00:58:13;;;;;;;11.13;4.93;;;-2.30;99.90;;;;;;5076333;28;20080;-76
2021/01/15 01:00:39;;;;;;;12.95;5.75;;;-2.30;99.90;;;;;;5072058;28;20044;-72
2021/01/15 01:03:13;;;;;;;10.65;5.60;;;-2.40;99.90;;;;;;5084272;28;20451;-74
2021/01/15 01:05:39;;;;;;;13.25;5.88;;;-2.40;99.90;;;;;;5073292;28;20197;-76
2021/01/15 01:08:05;;;;;;;11.43;5.60;;;-2.40;99.90;;;;;;5073675;28;20043;-75
2021/01/15 01:10:31;;;;;;;13.27;6.25;;;-2.30;99.90;;;;;;5080116;28;20021;-74
2021/01/15 01:12:57;;;;;;;13.43;6.32;;;-2.30;99.90;;;;;;5070373;28;20039;-73
2021/01/15 01:15:23;;;;;;;15.57;6.15;;;-2.20;99.90;;;;;;5065023;28;20498;-75
2021/01/15 01:17:49;;;;;;;14.88;5.72;;;-2.30;99.90;;;;;;5050011;28;20086;-75
2021/01/15 01:20:15;;;;;;;15.60;6.13;;;-2.20;99.90;;;;;;5049705;28;20068;-75
2021/01/15 01:22:41;;;;;;;12.65;6.38;;;-2.30;99.90;;;;;;5080206;28;20031;-75
2021/01/15 01:25:07;;;;;;;14.70;6.68;;;-2.20;99.90;;;;;;5071556;28;20713;-75
2021/01/15 01:27:33;;;;;;;13.60;6.50;;;-2.20;99.90;;;;;;5078961;28;20035;-74
2021/01/15 01:30:00;;;;;;;11.63;6.80;;;-2.20;99.90;;;;;;5090642;28;20563;-75
2021/01/15 01:32:25;;;;;;;15.82;7.15;;;-2.20;99.90;;;;;;5071502;28;20047;-75
2021/01/15 01:34:51;;;;;;;11.32;5.30;;;-2.30;99.90;;;;;;5090326;28;20032;-75
2021/01/15 01:37:17;;;;;;;9.68;5.13;;;-2.30;99.90;;;;;;5056544;28;20466;-75
2021/01/15 01:39:42;;;;;;;9.50;5.13;;;-2.40;99.90;;;;;;5091050;28;20039;-75
2021/01/15 01:42:08;;;;;;;11.23;5.68;;;-2.50;99.90;;;;;;5089743;28;20050;-75
2021/01/15 01:44:34;;;;;;;14.27;6.55;;;-2.50;99.90;;;;;;5089396;28;20040;-75
2021/01/15 01:47:00;;;;;;;10.77;4.63;;;-2.60;99.90;;;;;;5089616;28;20032;-74
2021/01/15 01:49:26;;;;;;;9.80;4.88;;;-2.60;99.90;;;;;;5089470;28;20093;-75
2021/01/15 01:51:53;;;;;;;9.75;5.07;;;-2.60;99.90;;;;;;5089900;28;20043;-75
2021/01/15 01:54:19;;;;;;;11.48;5.13;;;-2.80;99.90;;;;;;5089124;28;20447;-75
2021/01/15 01:56:44;;;;;;;9.82;4.88;;;-2.80;99.90;;;;;;5066671;28;20043;-74
2021/01/15 01:59:13;;;;;;;11.18;5.38;;;-2.80;99.90;;;;;;5055068;28;20037;-74
2021/01/15 02:01:39;;;;;;;10.55;5.25;;;-2.90;99.90;;;;;;5071589;28;20164;-75
2021/01/15 02:04:06;;;;;;;12.65;5.90;;;-2.90;99.90;;;;;;5063833;28;20052;-75
2021/01/15 02:06:38;;;;;;;9.90;5.28;;;-2.90;99.90;;;;;;5069657;28;20126;-75
2021/01/15 02:09:05;;;;;;;9.65;5.22;;;-3.00;99.90;;;;;;5070283;28;20393;-75
2021/01/15 02:11:45;;;;;;;11.18;5.25;;;-3.00;99.90;;;;;;5070746;28;20028;-75
2021/01/15 02:14:21;;;;;;;10.43;5.10;;;-3.00;99.90;;;;;;5069778;28;20395;-74
2021/01/15 02:16:50;;;;;;;11.18;5.40;;;-3.10;99.90;;;;;;5052631;28;20024;-74
2021/01/15 02:19:25;;;;;;;13.68;5.30;;;-3.10;99.90;;;;;;5050080;28;20701;-76
2021/01/15 02:22:20;;;;;;;9.40;4.68;;;-3.10;99.90;;;;;;5049359;28;20029;-75
2021/01/15 02:24:57;;;;;;;10.98;4.78;;;-3.00;99.90;;;;;;5049938;28;20564;-74
2021/01/15 02:28:01;;;;;;;8.90;4.70;;;-3.00;99.90;;;;;;5066564;28;20037;-75
2021/01/15 02:30:32;;;;;;;7.97;4.28;;;-3.10;99.90;;;;;;5069968;28;20028;-76
2021/01/15 02:33:30;;;;;;;7.80;4.53;;;-3.20;99.90;;;;;;5066565;28;20079;-75
2021/01/15 02:36:14;;;;;;;9.40;4.95;;;-3.20;99.90;;;;;;5070275;28;20021;-74
2021/01/15 02:38:47;;;;;;;9.30;4.75;;;-3.40;99.90;;;;;;5070499;28;20040;-74
2021/01/15 02:41:23;;;;;;;11.98;4.43;;;-3.50;99.90;;;;;;5070388;28;20063;-74
2021/01/15 02:43:56;;;;;;;11.52;4.50;;;-3.60;99.90;;;;;;5067716;28;20166;-74
2021/01/15 02:46:45;;;;;;;9.10;4.68;;;-3.70;99.90;;;;;;5069243;28;20029;-74
2021/01/15 02:49:11;;;;;;;12.40;5.43;;;-3.80;99.90;;;;;;5070343;28;20127;-74
2021/01/15 02:51:40;;;;;;;10.63;5.00;;;-3.80;99.90;;;;;;5070310;28;20024;-75
2021/01/15 02:54:06;;;;;;;10.43;4.93;;;-3.80;99.90;;;;;;5068866;28;20476;-75
2021/01/15 02:56:32;;;;;;;9.38;4.43;;;-3.90;99.90;;;;;;5070219;28;20469;-75
2021/01/15 02:58:58;;;;;;;12.18;5.18;;;-3.90;99.90;;;;;;5068755;28;20028;-75
2021/01/15 03:01:24;;;;;;;9.00;4.82;;;-3.90;99.90;;;;;;5070214;28;20683;-74
2021/01/15 03:04:07;;;;;;;7.15;4.22;;;-3.90;99.90;;;;;;5068331;28;20118;-76
2021/01/15 03:06:41;;;;;;;8.48;4.57;;;-3.90;99.90;;;;;;5069975;28;20143;-74
2021/01/15 03:09:09;;;;;;;7.90;4.10;;;-3.90;99.90;;;;;;5069928;28;20480;-74
2021/01/15 03:11:36;;;;;;;11.45;4.90;;;-4.00;99.90;;;;;;5070003;28;20033;-74
2021/01/15 03:14:03;;;;;;;11.95;5.10;;;-3.90;99.90;;;;;;5067269;28;20032;-74
2021/01/15 03:16:30;;;;;;;9.95;4.57;;;-4.00;99.90;;;;;;5056006;28;20076;-74
2021/01/15 03:18:59;;;;;;;10.25;4.80;;;-3.90;99.90;;;;;;5069939;28;20507;-76
2021/01/15 03:21:30;;;;;;;10.60;4.68;;;-3.90;99.90;;;;;;5069907;28;20048;-76
2021/01/15 03:24:02;;;;;;;10.32;4.35;;;-3.90;99.90;;;;;;5068566;28;20097;-73
2021/01/15 03:26:28;;;;;;;10.10;4.57;;;-3.90;99.90;;;;;;5066230;28;20480;-74
2021/01/15 03:28:54;;;;;;;9.63;5.00;;;-3.90;99.90;;;;;;5061481;28;20488;-76
2021/01/15 03:31:20;;;;;;;9.65;4.75;;;-3.90;99.90;;;;;;5085426;28;20032;-76
2021/01/15 03:33:45;;;;;;;7.68;4.03;;;-3.80;99.90;;;;;;5068378;28;20438;-75
2021/01/15 03:36:11;;;;;;;9.05;5.22;;;-3.80;99.90;;;;;;5069732;28;20109;-76
2021/01/15 03:38:37;;;;;;;13.23;5.07;;;-3.90;99.90;;;;;;5069260;28;20025;-75
2021/01/15 03:41:03;;;;;;;9.48;4.25;;;-3.90;99.90;;;;;;5069798;28;20036;-76
2021/01/15 03:43:28;;;;;;;11.45;5.43;;;-3.90;99.90;;;;;;5068441;28;20035;-76
2021/01/15 03:45:55;;;;;;;10.38;5.22;;;-3.90;99.90;;;;;;5069577;28;20027;-75
2021/01/15 03:48:21;;;;;;;12.63;5.65;;;-3.90;99.90;;;;;;5068633;28;20400;-75
2021/01/15 03:50:48;;;;;;;8.90;4.25;;;-3.80;99.90;;;;;;5070687;28;20029;-75
2021/01/15 03:53:15;;;;;;;10.55;5.15;;;-3.80;99.90;;;;;;5068139;28;20067;-75
2021/01/15 03:55:41;;;;;;;13.50;5.82;;;-3.80;99.90;;;;;;5070452;28;20020;-75
2021/01/15 03:58:07;;;;;;;10.70;4.85;;;-3.80;99.90;;;;;;5088948;28;20089;-76
2021/01/15 04:00:33;;;;;;;10.32;4.57;;;-3.80;99.90;;;;;;5088344;28;20104;-76
2021/01/15 04:02:58;;;;;;;10.38;4.97;;;-3.80;99.90;;;;;;5088396;28;20403;-75
2021/01/15 04:05:24;;;;;;;11.38;5.30;;;-3.80;99.90;;;;;;5089637;28;20032;-74
2021/01/15 04:07:50;;;;;;;11.55;5.15;;;-3.80;99.90;;;;;;5069743;28;20029;-75
2021/01/15 04:10:18;;;;;;;9.63;5.10;;;-3.70;99.90;;;;;;5069357;28;20033;-76
2021/01/15 04:12:44;;;;;;;11.43;5.03;;;-3.70;99.90;;;;;;5071110;28;20044;-74
2021/01/15 04:15:12;;;;;;;9.30;4.93;;;-3.70;99.90;;;;;;5042307;28;20077;-75
2021/01/15 04:17:38;;;;;;;12.50;5.15;;;-3.70;99.90;;;;;;5067175;28;20142;-76
2021/01/15 04:20:09;;;;;;;8.15;4.38;;;-3.70;99.90;;;;;;5085359;28;20127;-75
2021/01/15 04:22:36;;;;;;;14.77;5.82;;;-3.70;99.90;;;;;;5090120;28;20089;-74
2021/01/15 04:25:03;;;;;;;8.88;4.82;;;-3.80;99.90;;;;;;5093206;28;20028;-76
2021/01/15 04:27:30;;;;;;;9.57;4.68;;;-3.70;99.90;;;;;;5075504;28;20038;-76
2021/01/15 04:29:56;;;;;;;11.73;4.85;;;-3.80;99.90;;;;;;5072897;28;20119;-76
2021/01/15 04:32:22;;;;;;;7.43;4.63;;;-3.80;99.90;;;;;;5070903;28;20130;-74
2021/01/15 04:34:48;;;;;;;8.68;4.30;;;-3.80;99.90;;;;;;5072832;28;20025;-74
2021/01/15 04:37:14;;;;;;;9.80;4.93;;;-3.80;99.90;;;;;;5072972;28;20396;-74
2021/01/15 04:39:39;;;;;;;10.27;5.13;;;-3.80;99.90;;;;;;5071338;28;20055;-74
2021/01/15 04:42:05;;;;;;;11.10;4.70;;;-3.80;99.90;;;;;;5071322;28;20036;-74
2021/01/15 04:44:31;;;;;;;10.43;4.50;;;-3.80;99.90;;;;;;5071284;28;20036;-76
2021/01/15 04:47:00;;;;;;;8.25;3.97;;;-3.80;99.90;;;;;;5054963;28;20107;-74
2021/01/15 04:49:28;;;;;;;8.23;4.13;;;-3.80;99.90;;;;;;5072460;28;20036;-75
2021/01/15 04:52:01;;;;;;;9.13;4.78;;;-3.80;99.90;;;;;;5069990;28;20039;-75
2021/01/15 04:54:38;;;;;;;12.00;4.63;;;-3.80;99.90;;;;;;5072231;28;20033;-74
2021/01/15 04:57:09;;;;;;;8.95;4.43;;;-3.70;99.90;;;;;;5071167;28;20036;-73
2021/01/15 04:59:43;;;;;;;9.38;4.20;;;-3.70;99.90;;;;;;5071073;28;20484;-74
2021/01/15 05:02:10;;;;;;;6.40;3.60;;;-3.70;99.90;;;;;;5070121;28;20040;-74
2021/01/15 05:04:37;;;;;;;6.97;3.97;;;-3.70;99.90;;;;;;5072201;28;20021;-75
2021/01/15 05:07:07;;;;;;;10.45;4.82;;;-3.60;99.90;;;;;;5072163;28;20036;-76
2021/01/15 05:09:41;;;;;;;7.75;4.40;;;-3.60;99.90;;;;;;5071910;28;20109;-75
2021/01/15 05:12:18;;;;;;;9.88;3.97;;;-3.60;99.90;;;;;;5069561;28;20036;-77
2021/01/15 05:14:48;;;;;;;8.43;4.30;;;-3.60;99.90;;;;;;5070152;28;20042;-75
2021/01/15 05:17:18;;;;;;;8.98;4.50;;;-3.50;99.90;;;;;;5050966;28;20090;-75
2021/01/15 05:19:44;;;;;;;8.00;3.90;;;-3.50;99.90;;;;;;5060613;28;20027;-75
2021/01/15 05:22:14;;;;;;;5.57;3.70;;;-3.60;99.90;;;;;;5069073;28;20033;-75
2021/01/15 05:24:40;;;;;;;7.63;3.83;;;-3.70;99.90;;;;;;5070410;28;20123;-75
2021/01/15 05:30:17;;;;;;;7.93;3.50;;;-3.70;99.90;;;;;;5070240;28;20032;-75
2021/01/15 05:32:43;;;;;;;9.13;4.05;;;-3.60;99.90;;;;;;5070359;28;20496;-75
2021/01/15 05:35:09;;;;;;;6.35;3.53;;;-3.60;99.90;;;;;;5071585;28;20040;-75
2021/01/15 05:37:35;;;;;;;6.45;3.90;;;-3.50;99.90;;;;;;5071560;28;20086;-75
2021/01/15 05:40:01;;;;;;;7.45;3.53;;;-3.50;99.90;;;;;;5070333;28;20044;-75
2021/01/15 05:42:27;;;;;;;7.75;4.10;;;-3.50;99.90;;;;;;5069817;28;20032;-75
2021/01/15 05:45:24;;;;;;;5.30;3.40;;;-3.40;99.90;;;;;;5071362;28;20047;-75
2021/01/15 05:47:50;;;;;;;7.85;3.45;;;-3.40;99.90;;;;;;5062342;28;20040;-76
2021/01/15 05:50:16;;;;;;;7.32;3.70;;;-3.40;99.90;;;;;;5071047;28;20035;-76
2021/01/15 05:52:56;;;;;;;5.57;2.97;;;-3.40;99.90;;;;;;5069796;28;20041;-74
2021/01/15 05:55:23;;;;;;;6.85;3.33;;;-3.40;99.90;;;;;;5078653;28;20043;-76
2021/01/15 05:57:50;;;;;;;5.35;3.00;;;-3.40;99.90;;;;;;5071995;28;20100;-76
2021/01/15 06:00:28;;;;;;;5.50;3.10;;;-3.40;99.90;;;;;;5078826;22;20044;-76
2021/01/15 06:02:55;;;;;;;7.50;3.85;;;-3.40;99.90;;;;;;5022638;28;20543;-76
2021/01/15 06:05:23;;;;;;;5.90;3.50;;;-3.40;99.90;;;;;;5030849;28;20095;-74
2021/01/15 06:07:59;;;;;;;8.60;3.17;;;-3.40;99.90;;;;;;5029655;28;20056;-74
2021/01/15 06:10:25;;;;;;;6.05;2.88;;;-3.40;99.90;;;;;;5030756;28;20075;-74
2021/01/15 06:12:51;;;;;;;6.57;3.45;;;-3.40;99.90;;;;;;5029641;28;20030;-74
2021/01/15 06:15:17;;;;;;;6.70;3.30;;;-3.40;99.90;;;;;;5030810;28;20025;-75
2021/01/15 06:17:50;;;;;;;7.18;3.95;;;-3.40;99.90;;;;;;5030324;28;20029;-74
2021/01/15 06:20:20;;;;;;;7.28;3.47;;;-3.40;99.90;;;;;;5058590;28;20025;-74
2021/01/15 06:22:51;;;;;;;6.70;3.00;;;-3.40;99.90;;;;;;5028503;28;20079;-74
2021/01/15 06:25:23;;;;;;;6.75;3.67;;;-3.40;99.90;;;;;;5030444;28;20030;-74
2021/01/15 06:27:55;;;;;;;5.05;2.72;;;-3.50;99.90;;;;;;5029919;28;20025;-74
2021/01/15 06:30:23;;;;;;;9.02;3.88;;;-3.50;99.90;;;;;;5029998;28;20156;-74
2021/01/15 06:32:50;;;;;;;5.40;2.85;;;-3.50;99.90;;;;;;5015791;28;20485;-74
2021/01/15 06:35:33;;;;;;;5.75;3.03;;;-3.50;99.90;;;;;;5030859;28;20120;-74
2021/01/15 06:38:01;;;;;;;4.28;2.70;;;-3.50;99.90;;;;;;5030979;28;20036;-74
2021/01/15 06:40:35;;;;;;;5.60;2.88;;;-3.50;99.90;;;;;;5030725;28;20070;-74
2021/01/15 06:43:11;;;;;;;5.73;3.07;;;-3.50;99.90;;;;;;5029947;28;20026;-74
2021/01/15 06:45:39;;;;;;;7.20;3.30;;;-3.50;99.90;;;;;;5046060;28;20045;-74
2021/01/15 06:48:12;;;;;;;6.15;3.03;;;-3.40;99.90;;;;;;5037502;28;20071;-74
2021/01/15 06:50:39;;;;;;;7.68;3.67;;;-3.40;99.90;;;;;;5047583;28;20520;-74
2021/01/15 06:53:26;;;;;;;6.10;3.38;;;-3.40;99.90;;;;;;5036480;28;20091;-74
2021/01/15 06:55:52;;;;;;;5.88;3.13;;;-3.30;99.90;;;;;;5028423;28;20045;-74
2021/01/15 06:58:20;;;;;;;3.97;3.20;;;-3.30;99.90;;;;;;5038586;28;20488;-74
2021/01/15 07:01:16;;;;;;;6.80;2.95;;;-3.40;99.90;;;;;;5043124;28;20033;-74
2021/01/15 07:04:20;;;;;;;5.68;3.40;;;-3.40;99.90;;;;;;5027264;28;20446;-74
2021/01/15 07:07:07;;;;;;;6.32;3.72;;;-3.40;99.90;;;;;;5017859;28;20030;-74
2021/01/15 07:09:35;;;;;;;8.52;3.50;;;-3.40;99.90;;;;;;5029067;28;20028;-74
2021/01/15 07:12:07;;;;;;;7.10;3.53;;;-3.30;99.90;;;;;;5032506;28;20037;-74
2021/01/15 07:14:44;;;;;;;6.68;3.75;;;-3.30;99.90;;;;;;5031007;28;20017;-74
2021/01/15 07:17:18;;;;;;;8.73;4.18;;;-3.30;99.90;;;;;;5023785;28;20026;-74
2021/01/15 07:19:45;;;;;;;7.25;3.50;;;-3.40;99.90;;;;;;5029598;28;20063;-74
2021/01/15 07:22:12;;;;;;;10.48;3.83;;;-3.40;99.90;;;;;;5028492;28;20399;-74
2021/01/15 07:24:41;;;;;;;7.30;3.80;;;-3.50;99.90;;;;;;5030057;28;20042;-74
2021/01/15 07:27:09;;;;;;;8.88;4.53;;;-3.50;99.90;;;;;;5029298;28;20033;-74
2021/01/15 07:29:48;;;;;;;9.80;4.10;;;-3.60;99.90;;;;;;5029755;28;20029;-76
2021/01/15 07:32:24;;;;;;;10.77;3.95;;;-3.50;99.90;;;;;;5028482;28;20489;-76
2021/01/15 07:34:54;;;;;;;7.03;3.60;;;-3.50;99.90;;;;;;5028059;28;20025;-74
2021/01/15 07:37:28;;;;;;;5.00;3.22;;;-3.50;99.90;;;;;;5017608;28;20119;-74
2021/01/15 07:40:05;;;;;;;6.00;3.13;;;-3.40;99.90;;;;;;5020880;28;20022;-74
2021/01/15 07:42:39;;;;;;;4.72;2.88;;;-3.40;99.90;;;;;;5025955;28;20663;-75
2021/01/15 07:45:05;;;;;;;4.88;2.80;;;-3.30;99.90;;;;;;5028702;28;20026;-74
2021/01/15 07:47:37;;;;;;;5.40;2.80;;;-3.30;99.90;;;;;;5028442;28;20026;-76
2021/01/15 07:50:04;;;;;;;4.30;2.85;;;-3.30;99.90;;;;;;5024334;28;20038;-77
2021/01/15 07:52:30;;;;;;;4.68;2.50;;;-3.20;99.90;;;;;;5025476;28;20033;-76
2021/01/15 07:55:03;;;;;;;7.15;3.05;;;-3.20;99.90;;;;;;5031833;28;20067;-75
2021/01/15 07:57:31;;;;;;;5.90;3.03;;;-3.10;99.90;;;;;;5033289;28;20112;-75
2021/01/15 08:00:17;;;;;;;5.82;3.33;;;-3.00;99.90;;;;;;5032351;28;20044;-75
2021/01/15 08:02:43;;;;;;;6.40;2.75;;;-3.00;99.90;;;;;;5029461;28;20037;-75
2021/01/15 08:05:09;;;;;;;4.95;2.50;;;-3.00;99.90;;;;;;5032889;28;20037;-75
2021/01/15 08:07:35;;;;;;;4.20;2.60;;;-2.90;99.90;;;;;;5032433;28;20395;-75
2021/01/15 08:10:01;;;;;;;6.68;2.97;;;-2.80;99.90;;;;;;5033011;28;20106;-74
2021/01/15 08:12:36;;;;;;;6.70;2.92;;;-2.80;99.90;;;;;;5040578;28;20605;-74
2021/01/15 08:15:03;;;;;;;6.70;3.00;;;-2.70;99.90;;;;;;5036649;28;20107;-75
2021/01/15 08:17:29;;;;;;;5.35;2.72;;;-2.70;99.90;;;;;;5033037;28;20029;-74
2021/01/15 08:19:55;;;;;;;6.68;2.85;;;-2.60;99.90;;;;;;5035305;28;20033;-74
2021/01/15 08:22:22;;;;;;;5.70;3.15;;;-2.50;99.90;;;;;;5038871;28;20481;-74
2021/01/15 08:24:50;;;;;;;6.28;3.25;;;-2.50;99.90;;;;;;5037632;28;20501;-74
2021/01/15 08:27:20;;;;;;;6.90;3.33;;;-2.50;99.90;;;;;;5041063;28;20040;-75
2021/01/15 08:29:46;;;;;;;7.65;3.40;;;-2.40;99.90;;;;;;5036985;28;20033;-74
2021/01/15 08:32:13;;;;;;;5.60;3.60;;;-2.40;99.90;;;;;;5037423;28;20112;-75
2021/01/15 08:34:39;;;;;;;8.82;3.05;;;-2.40;99.90;;;;;;5036252;28;20524;-75
2021/01/15 08:37:15;;;;;;;4.72;2.95;;;-2.40;99.90;;;;;;5032311;28;20025;-74
2021/01/15 08:39:49;;;;;;;5.72;2.60;;;-2.30;99.90;;;;;;5032270;28;20519;-74
2021/01/15 08:42:15;;;;;;;5.53;2.60;;;-2.30;99.90;;;;;;5035060;28;20037;-75
2021/01/15 08:44:41;;;;;;;3.47;2.13;;;-2.20;99.90;;;;;;5032159;28;20033;-75
2021/01/15 08:47:11;;;;;;;5.80;2.50;;;-2.20;99.90;;;;;;5032446;28;20041;-74
2021/01/15 08:49:38;;;;;;;5.63;2.75;;;-2.10;99.90;;;;;;5035417;28;20037;-75
2021/01/15 08:52:05;;;;;;;4.68;2.90;;;-2.10;99.90;;;;;;5028572;28;20053;-75
2021/01/15 08:54:32;;;;;;;5.30;2.92;;;-2.10;99.90;;;;;;5013393;28;20060;-74
2021/01/15 08:57:00;;;;;;;5.38;2.75;;;-2.00;99.90;;;;;;5029452;28;20132;-74
2021/01/15 08:59:31;;;;;;;5.40;2.58;;;-2.00;99.90;;;;;;5033599;28;20097;-75
2021/01/15 09:02:03;;;;;;;5.13;2.97;;;-2.00;99.90;;;;;;5041165;28;20071;-75
2021/01/15 09:04:35;;;;;;;4.93;2.65;;;-1.90;99.90;;;;;;5030961;28;20025;-74
2021/01/15 09:07:06;;;;;;;4.85;2.85;;;-1.90;99.90;;;;;;5026253;28;20025;-74
2021/01/15 09:09:35;;;;;;;4.30;2.63;;;-1.90;99.90;;;;;;5028921;28;20544;-74
2021/01/15 09:12:09;;;;;;;6.68;3.15;;;-1.80;99.90;;;;;;5027633;28;20076;-74
2021/01/15 09:14:39;;;;;;;5.38;2.95;;;-1.80;99.90;;;;;;5028697;28;20061;-74
2021/01/15 09:17:07;;;;;;;7.35;3.55;;;-1.70;99.90;;;;;;5027436;28;20087;-74
2021/01/15 09:19:34;;;;;;;6.15;3.25;;;-1.70;99.90;;;;;;5060610;28;20095;-74
2021/01/15 09:22:02;;;;;;;4.45;2.80;;;-1.70;99.90;;;;;;5032904;28;20037;-74
2021/01/15 09:24:29;;;;;;;8.30;3.45;;;-1.60;99.90;;;;;;5022684;28;20037;-74
2021/01/15 09:27:00;;;;;;;5.40;2.72;;;-1.60;99.90;;;;;;5026874;28;20021;-74
2021/01/15 09:29:26;;;;;;;5.38;2.65;;;-1.50;99.90;;;;;;5030773;28;20061;-73
2021/01/15 09:31:53;;;;;;;5.25;2.85;;;-1.50;99.90;;;;;;5029369;28;20405;-74
2021/01/15 09:34:20;;;;;;;6.72;3.00;;;-1.40;99.90;;;;;;5037737;28;20084;-74
2021/01/15 09:36:47;;;;;;;8.40;3.20;;;-1.30;99.90;;;;;;5028941;28;20547;-74
2021/01/15 09:39:14;;;;;;;4.88;2.50;;;-1.30;99.90;;;;;;5035266;28;20136;-74
2021/01/15 09:41:48;;;;;;;8.80;2.92;;;-1.20;99.90;;;;;;5027744;28;20038;-74
2021/01/15 09:44:16;;;;;;;7.10;3.28;;;-1.10;99.90;;;;;;5030012;28;20080;-74
2021/01/15 09:46:42;;;;;;;7.75;3.38;;;-1.10;99.90;;;;;;5028605;28;20105;-74
2021/01/15 09:49:08;;;;;;;7.22;3.22;;;-1.10;99.90;;;;;;5029603;28;20112;-74
2021/01/15 09:51:34;;;;;;;6.88;3.17;;;-1.00;99.90;;;;;;5029491;28;20612;-74
2021/01/15 09:54:01;;;;;;;6.95;3.53;;;-0.90;99.90;;;;;;5029044;28;20033;-74
2021/01/15 09:56:28;;;;;;;7.43;3.75;;;-0.90;99.90;;;;;;5039466;28;20543;-74
2021/01/15 09:58:59;;;;;;;5.55;3.20;;;-0.80;99.90;;;;;;5028414;28;20025;-74
2021/01/15 10:01:26;;;;;;;6.18;2.80;;;-0.70;99.90;;;;;;5029652;28;20350;-74
2021/01/15 10:03:53;;;;;;;5.72;3.13;;;-0.60;99.90;;;;;;5021466;28;20438;-74
2021/01/15 10:06:19;;;;;;;7.40;3.80;;;-0.60;99.90;;;;;;5026575;28;20044;-74
2021/01/15 10:08:46;;;;;;;6.15;3.15;;;-0.50;99.90;;;;;;5032066;28;20060;-74
2021/01/15 10:11:33;;;;;;;4.75;2.70;;;-0.40;99.90;;;;;;5036811;28;20068;-74
2021/01/15 10:14:05;;;;;;;6.50;3.20;;;-0.30;99.90;;;;;;5037795;28;20025;-74
2021/01/15 10:16:30;;;;;;;4.00;2.53;;;-0.30;99.90;;;;;;5006985;28;20026;-74
2021/01/15 10:19:00;;;;;;;7.38;3.35;;;-0.30;99.90;;;;;;5037042;28;20029;-74
2021/01/15 10:21:32;;;;;;;5.68;2.92;;;-0.30;99.90;;;;;;5031157;28;20116;-74
2021/01/15 10:23:58;;;;;;;7.85;4.32;;;-0.20;99.90;;;;;;5033078;28;20114;-74
2021/01/15 10:26:30;;;;;;;7.50;3.25;;;-0.20;99.90;;;;;;5037589;28;20086;-74
2021/01/15 10:29:07;;;;;;;11.45;3.60;;;-0.20;99.90;;;;;;5021714;28;20033;-74
2021/01/15 10:31:35;;;;;;;6.32;3.65;;;-0.10;99.90;;;;;;5036041;28;20040;-74
2021/01/15 10:34:04;;;;;;;7.28;4.05;;;-0.10;99.90;;;;;;5035385;28;20033;-74
2021/01/15 10:36:30;;;;;;;8.98;3.80;;;0.00;99.90;;;;;;5036970;28;20587;-74
2021/01/15 10:38:57;;;;;;;6.97;3.65;;;0.00;99.90;;;;;;5025274;28;20025;-74
2021/01/15 10:41:37;;;;;;;7.82;3.45;;;0.10;99.90;;;;;;5038891;28;20140;-74
2021/01/15 10:44:04;;;;;;;9.13;3.67;;;0.20;99.90;;;;;;5036836;28;20025;-74
2021/01/15 10:46:39;;;;;;;6.35;3.15;;;0.20;99.90;;;;;;5037836;28;20025;-74
2021/01/15 10:49:11;;;;;;;7.88;3.78;;;0.30;99.90;;;;;;5035721;28;20067;-74
2021/01/15 10:51:44;;;;;;;8.40;4.30;;;0.30;99.90;;;;;;5035397;28;20035;-74
2021/01/15 10:54:10;;;;;;;6.97;3.88;;;0.40;99.90;;;;;;5032656;28;20059;-74
2021/01/15 10:56:37;;;;;;;7.32;3.78;;;0.50;99.90;;;;;;5033567;28;20055;-74
2021/01/15 10:59:04;;;;;;;7.45;4.03;;;0.60;99.90;;;;;;5035726;28;20440;-74
2021/01/15 11:01:40;;;;;;;9.20;4.43;;;0.60;99.90;;;;;;5035101;28;20124;-74
2021/01/15 11:04:08;;;;;;;6.75;3.92;;;0.70;99.90;;;;;;5034247;28;20040;-74
2021/01/15 11:06:38;;;;;;;9.43;4.60;;;0.70;99.90;;;;;;5027325;28;20037;-74
2021/01/15 11:09:09;;;;;;;9.25;4.25;;;0.80;99.90;;;;;;5023972;28;20030;-74
2021/01/15 11:11:35;;;;;;;8.73;4.18;;;0.90;99.90;;;;;;5024174;28;20030;-74
2021/01/15 11:14:01;;;;;;;7.65;3.83;;;0.90;99.90;;;;;;5035389;28;20023;-74
2021/01/15 11:16:27;;;;;;;9.45;4.50;;;0.90;99.90;;;;;;5034503;28;20116;-74
2021/01/15 11:18:53;;;;;;;8.57;4.30;;;1.00;99.90;;;;;;5038360;28;20032;-74
2021/01/15 11:21:28;;;;;;;10.40;4.75;;;1.10;99.90;;;;;;5021585;28;20025;-74
2021/01/15 11:23:54;;;;;;;7.97;4.47;;;1.20;99.90;;;;;;5034472;28;20033;-74
2021/01/15 11:26:25;;;;;;;6.93;4.40;;;1.20;99.90;;;;;;5035710;28;20412;-75
2021/01/15 11:28:55;;;;;;;8.52;4.60;;;1.20;99.90;;;;;;5034488;28;20064;-74
2021/01/15 11:31:22;;;;;;;11.23;5.07;;;1.10;99.90;;;;;;5041138;28;20021;-74
2021/01/15 11:33:48;;;;;;;6.85;4.30;;;1.00;99.90;;;;;;5029570;28;20112;-74
2021/01/15 11:36:14;;;;;;;7.15;3.97;;;1.00;99.90;;;;;;5048315;28;20033;-74
2021/01/15 11:38:41;;;;;;;8.77;3.83;;;1.00;99.90;;;;;;5032865;28;20079;-74
2021/01/15 11:41:07;;;;;;;8.95;4.15;;;1.10;99.90;;;;;;5031137;28;20037;-74
2021/01/15 11:43:36;;;;;;;6.88;4.20;;;1.00;99.90;;;;;;5030123;28;20054;-74
2021/01/15 11:46:03;;;;;;;6.93;3.83;;;1.00;99.90;;;;;;5032607;28;20029;-74
2021/01/15 11:48:30;;;;;;;6.60;3.83;;;1.00;99.90;;;;;;5014964;28;20029;-75
2021/01/15 11:50:56;;;;;;;7.55;4.05;;;0.90;99.90;;;;;;5032661;28;20041;-74
2021/01/15 11:53:23;;;;;;;6.60;3.90;;;0.80;99.90;;;;;;5012910;28;20034;-75
2021/01/15 11:55:53;;;;;;;7.03;3.80;;;0.80;99.90;;;;;;5037734;28;20029;-75
2021/01/15 11:58:22;;;;;;;8.13;4.20;;;0.80;99.90;;;;;;5043324;28;20047;-77
2021/01/15 12:00:48;;;;;;;6.75;3.60;;;0.80;99.90;;;;;;5052103;28;20044;-76
2021/01/15 12:03:15;;;;;;;6.65;3.50;;;0.70;99.90;;;;;;5032975;28;20132;-76
2021/01/15 12:05:49;;;;;;;5.88;3.83;;;0.60;99.90;;;;;;5041491;28;20037;-75
2021/01/15 12:08:15;;;;;;;7.45;3.85;;;0.60;99.90;;;;;;5030214;28;20112;-74
2021/01/15 12:10:41;;;;;;;9.23;4.28;;;0.50;99.90;;;;;;5030968;28;20556;-75
2021/01/15 12:13:06;;;;;;;8.07;4.18;;;0.50;99.90;;;;;;5029471;28;20125;-74
2021/01/15 12:15:32;;;;;;;6.32;3.65;;;0.40;99.90;;;;;;5048114;28;20064;-75
2021/01/15 12:17:58;;;;;;;9.93;4.30;;;0.50;99.90;;;;;;5048120;28;20026;-75
2021/01/15 12:20:24;;;;;;;7.85;4.28;;;0.50;99.90;;;;;;5033578;28;20024;-75
2021/01/15 12:22:49;;;;;;;7.13;3.92;;;0.40;99.90;;;;;;5035470;28;20686;-74
2021/01/15 12:25:15;;;;;;;6.93;3.72;;;0.50;99.90;;;;;;5030593;28;20035;-74
2021/01/15 12:27:41;;;;;;;7.93;4.32;;;0.50;99.90;;;;;;5031819;28;20025;-75
2021/01/15 12:30:08;;;;;;;9.18;4.28;;;0.50;99.90;;;;;;5033544;28;20068;-75
2021/01/15 12:32:34;;;;;;;9.48;4.25;;;0.50;99.90;;;;;;5035829;28;20029;-75
2021/01/15 12:35:00;;;;;;;6.78;3.28;;;0.50;99.90;;;;;;5040949;28;20546;-75
2021/01/15 12:37:27;;;;;;;6.38;3.70;;;0.50;99.90;;;;;;5039747;28;20087;-75
2021/01/15 12:39:53;;;;;;;8.75;3.90;;;0.50;99.90;;;;;;5039158;28;20636;-75
2021/01/15 12:42:19;;;;;;;6.15;3.78;;;0.50;99.90;;;;;;5036622;28;20119;-75
2021/01/15 12:44:45;;;;;;;6.03;3.38;;;0.40;99.90;;;;;;5039721;28;20453;-75
2021/01/15 12:47:11;;;;;;;5.40;3.53;;;0.50;99.90;;;;;;5039106;28;20102;-75
2021/01/15 12:49:37;;;;;;;9.27;3.88;;;0.40;99.90;;;;;;5031136;28;20040;-74
2021/01/15 12:52:03;;;;;;;6.30;3.53;;;0.40;99.90;;;;;;5028302;28;20912;-75
2021/01/15 12:54:29;;;;;;;9.32;3.85;;;0.40;99.90;;;;;;5031667;28;20029;-74
2021/01/15 12:56:54;;;;;;;5.45;3.33;;;0.30;99.90;;;;;;5030070;28;20493;-75
2021/01/15 12:59:20;;;;;;;8.82;4.18;;;0.30;99.90;;;;;;5036254;28;20151;-74